ROCKY ISLAND AK US NWS current weather conditions

sailwx.info

Wind from 280 at 5 knots gusting 6

Air temperature 5.0° C
Dewpoint 2.7° C

Last reported at 2020-Oct-20 10:34 UTC.
Time now 2020-Oct-20 11:25 UTC

Location: N 58°11' W 135°03'.
View on Google Maps.

See reports from other nearby stations

  
Tides and Currents Weather Stations Pressure Air Temp Water Temp Dewpoint Dewpoint Depression Visibility Wind Speed Wind Dir Waves Ship Positions
date/time (UTC)wind fromknots sea level pressurealtimeterstation pressurevisibilityair tempwater tempwave heightnotes
2020-Oct-20 10:34 280 5 gusting 6 5.0
2020-Oct-20 10:24 270 6 gusting 6 5.1
2020-Oct-20 10:14 270 6 gusting 8 5.2
2020-Oct-20 10:04 270 6 gusting 8 5.2
2020-Oct-20 09:54 270 5 gusting 6 5.2
2020-Oct-20 09:44 240 6 gusting 7 5.5
2020-Oct-20 09:34 210 6 gusting 9 5.7
2020-Oct-20 09:24 200 6 gusting 9 5.8
2020-Oct-20 09:14 160 6 gusting 12 5.8
2020-Oct-20 09:04 130 13 gusting 19 5.9
2020-Oct-20 08:54 120 14 gusting 20 5.9
2020-Oct-20 08:44 130 15 gusting 19 5.8
2020-Oct-20 08:34 130 17 gusting 20 5.8
2020-Oct-20 08:24 140 8 gusting 18 5.8
2020-Oct-20 08:14 160 8 gusting 11 5.7
2020-Oct-20 08:04 170 7 gusting 9 5.7
2020-Oct-20 07:54 150 6 gusting 9 5.7
2020-Oct-20 07:44 150 6 gusting 11 5.7
2020-Oct-20 07:34 130 12 gusting 18 5.9
2020-Oct-20 07:24 130 13 gusting 19 5.8
2020-Oct-20 07:14 120 13 gusting 19 5.8
2020-Oct-20 07:04 130 13 gusting 20 5.9
2020-Oct-20 06:54 150 8 gusting 13 5.9
2020-Oct-20 06:44 150 12 gusting 14 5.9
2020-Oct-20 06:34 140 12 gusting 15 5.9
2020-Oct-20 06:24 140 13 gusting 17 5.9
2020-Oct-20 06:14 120 14 gusting 20 5.5
2020-Oct-20 06:04 110 15 gusting 24 5.1
2020-Oct-20 05:54 110 15 gusting 24 5.1
2020-Oct-20 05:44 110 17 gusting 22 5.4
2020-Oct-20 05:34 110 18 gusting 26 5.4
2020-Oct-20 05:24 120 18 gusting 24 5.6
2020-Oct-20 05:14 110 18 gusting 24 5.5
2020-Oct-20 05:04 120 19 gusting 25 5.4
2020-Oct-20 04:54 120 18 gusting 24 5.5
2020-Oct-20 04:44 130 15 gusting 22 5.4
2020-Oct-20 04:34 130 17 gusting 21 5.4
2020-Oct-20 04:24 130 18 gusting 24 5.4
2020-Oct-20 04:14 120 15 gusting 21 5.5
2020-Oct-20 04:04 130 17 gusting 22 5.4
2020-Oct-20 03:54 130 17 gusting 21 5.3
2020-Oct-20 03:44 130 15 gusting 19 5.4
2020-Oct-20 03:34 130 17 gusting 21 5.4
2020-Oct-20 03:24 130 18 gusting 20 5.5
2020-Oct-20 03:14 130 15 gusting 20 5.6
2020-Oct-20 03:04 130 17 gusting 22 5.5
2020-Oct-20 02:54 130 15 gusting 22 5.5
2020-Oct-20 02:44 130 13 gusting 20 5.4
2020-Oct-20 02:34 140 13 gusting 20 5.7
2020-Oct-20 02:24 120 19 gusting 24 5.5
2020-Oct-20 02:14 120 18 gusting 22 5.5
2020-Oct-20 02:04 110 18 gusting 21 5.5
2020-Oct-20 01:54 110 18 gusting 21 5.5
2020-Oct-20 01:44 110 15 gusting 20 5.4
2020-Oct-20 01:34 110 17 gusting 20 5.4
2020-Oct-20 01:24 110 17 gusting 25 5.5
2020-Oct-20 01:14 100 14 gusting 20 5.4
2020-Oct-20 01:04 100 15 gusting 20 5.3
2020-Oct-20 00:54 110 15 gusting 20 5.3
2020-Oct-20 00:44 100 15 gusting 20 5.2
2020-Oct-20 00:34 100 14 gusting 18 5.3
2020-Oct-20 00:24 100 14 gusting 19 5.2
2020-Oct-20 00:14 100 13 gusting 18 5.2
2020-Oct-19 23:54 090 12 gusting 15 5.0
2020-Oct-19 23:44 100 12 gusting 15 4.9
2020-Oct-19 23:34 100 11 gusting 13 4.9
2020-Oct-19 23:24 100 9 gusting 13 4.8
2020-Oct-19 23:14 100 8 gusting 12 4.7
2020-Oct-19 23:04 110 7 gusting 11 4.6
2020-Oct-19 22:54 110 6 gusting 9 4.6
2020-Oct-19 22:44 110 6 gusting 7 4.6
2020-Oct-19 22:34 120 6 gusting 8 4.6
2020-Oct-19 22:24 100 5 gusting 7 4.6
2020-Oct-19 22:14 100 5 gusting 7 4.5
2020-Oct-19 22:04 100 5 gusting 7 4.5
2020-Oct-19 21:54 100 5 gusting 7 4.4
2020-Oct-19 21:44 110 5 gusting 6 4.5
2020-Oct-19 21:34 090 5 gusting 8 4.5
2020-Oct-19 21:24 110 4 gusting 6 4.6
2020-Oct-19 21:14 110 4 gusting 6 4.5
2020-Oct-19 21:04 120 2 gusting 6 4.6
2020-Oct-19 20:54 080 2 gusting 6 4.8
2020-Oct-19 20:44 070 2 gusting 7 4.7
2020-Oct-19 20:34 030 2 gusting 6 4.6
2020-Oct-19 20:24 030 2 gusting 6 4.7
2020-Oct-19 20:14 060 1 gusting 5 4.7
2020-Oct-19 20:04 040 1 gusting 5 4.8
2020-Oct-19 19:54 050 1 gusting 5 5.1
2020-Oct-19 19:44 020 2 gusting 6 4.6
2020-Oct-19 19:34 030 1 gusting 4 4.7
2020-Oct-19 19:24 010 1 gusting 5 4.3
2020-Oct-19 19:14 020 1 gusting 5 4.2
2020-Oct-19 19:04 020 1 gusting 4 3.9
2020-Oct-19 18:54 010 2 gusting 6 3.7
2020-Oct-19 18:44 020 1 gusting 4 3.7
2020-Oct-19 18:34 010 2 gusting 6 3.6
2020-Oct-19 18:24 360 4 gusting 6 3.4
2020-Oct-19 18:14 360 4 gusting 6 3.4
2020-Oct-19 18:04 010 2 gusting 5 3.3
2020-Oct-19 17:54 360 2 gusting 6 3.3
2020-Oct-19 17:44 360 2 gusting 6 3.4
2020-Oct-19 17:34 360 4 gusting 6 3.3
2020-Oct-19 17:24 360 4 gusting 6 3.3
2020-Oct-19 17:14 010 4 gusting 6 3.3
2020-Oct-19 17:04 010 4 gusting 6 3.3
2020-Oct-19 16:54 360 6 gusting 9 3.3
2020-Oct-19 16:44 360 7 gusting 9 3.2
2020-Oct-19 16:34 010 6 gusting 9 3.2
2020-Oct-19 16:24 360 6 gusting 9 3.1
2020-Oct-19 16:14 010 6 gusting 11 3.2
2020-Oct-19 16:04 360 7 gusting 9 3.0
2020-Oct-19 15:54 360 7 gusting 12 3.0
2020-Oct-19 15:44 010 8 gusting 12 3.1
2020-Oct-19 15:34 360 9 gusting 13 3.0
2020-Oct-19 15:24 010 9 gusting 13 2.9
2020-Oct-19 15:14 010 8 gusting 12 3.0
2020-Oct-19 15:04 010 8 gusting 13 3.1
2020-Oct-19 14:54 010 8 gusting 12 3.0
2020-Oct-19 14:44 010 7 gusting 11 3.0
2020-Oct-19 14:34 010 7 gusting 11 2.9
2020-Oct-19 14:24 360 8 gusting 12 2.9
2020-Oct-19 14:14 010 6 gusting 13 2.8
2020-Oct-19 14:04 010 7 gusting 12 2.7
2020-Oct-19 13:54 010 7 gusting 12 2.8
2020-Oct-19 13:44 010 8 gusting 12 2.7
2020-Oct-19 13:34 360 8 gusting 12 2.7
2020-Oct-19 13:24 010 8 gusting 13 2.6
2020-Oct-19 13:14 010 9 gusting 13 2.6
2020-Oct-19 13:04 010 8 gusting 13 2.5
2020-Oct-19 12:54 010 8 gusting 13 2.5
2020-Oct-19 12:44 010 8 gusting 14 2.5
2020-Oct-19 12:34 010 9 gusting 13 2.6
2020-Oct-19 12:24 360 9 gusting 14 2.7
2020-Oct-19 12:14 360 11 gusting 13 2.7
2020-Oct-19 12:04 010 9 gusting 13 3.0
2020-Oct-19 11:54 360 8 gusting 12 2.9
2020-Oct-19 11:44 010 8 gusting 13 3.0
2020-Oct-19 11:34 360 8 gusting 12 2.9
2020-Oct-19 11:24 010 9 gusting 13 3.0
2020-Oct-19 11:14 360 11 gusting 13 2.9
2020-Oct-19 11:04 360 11 gusting 13 3.1
2020-Oct-19 10:54 360 9 gusting 13 3.0
2020-Oct-19 10:44 360 9 gusting 12 3.1
2020-Oct-19 10:34 010 9 gusting 13 3.1
2020-Oct-19 10:24 010 9 gusting 13 3.2
2020-Oct-19 08:14 020 7 gusting 13 4.3
2020-Oct-19 08:04 010 8 gusting 13 4.4
2020-Oct-19 07:54 010 9 gusting 13 4.4
2020-Oct-19 07:44 010 9 gusting 13 4.5
2020-Oct-19 07:34 010 7 gusting 13 4.6
2020-Oct-19 07:24 010 7 gusting 12 4.5
2020-Oct-19 07:14 360 7 gusting 11 4.5
2020-Oct-19 07:04 010 6 gusting 7 4.5
2020-Oct-19 06:54 010 6 gusting 11 4.5
2020-Oct-19 06:44 010 7 gusting 12 4.5
2020-Oct-19 06:34 360 7 gusting 11 4.5
2020-Oct-19 06:24 010 7 gusting 9 4.4
2020-Oct-19 06:14 010 8 gusting 11 4.5
2020-Oct-19 06:04 010 8 gusting 12 4.5
2020-Oct-19 05:54 010 7 gusting 12 4.6
2020-Oct-19 05:44 010 6 gusting 13 4.6
2020-Oct-19 05:34 360 7 gusting 11 4.6
2020-Oct-19 05:24 360 6 gusting 13 4.6
2020-Oct-19 05:14 010 6 gusting 9 4.6
2020-Oct-19 05:04 010 4 gusting 6 4.6
2020-Oct-19 04:54 010 6 gusting 8 4.6
2020-Oct-19 04:44 020 5 gusting 8 4.5
2020-Oct-19 04:34 020 5 gusting 9 4.5
2020-Oct-19 04:24 030 5 gusting 9 4.5
2020-Oct-19 04:14 040 4 gusting 7 4.4
2020-Oct-19 04:04 030 5 gusting 9 4.5
2020-Oct-19 03:54 030 6 gusting 9 4.5
2020-Oct-19 03:44 020 7 gusting 13 4.5
2020-Oct-19 03:34 010 9 gusting 13 4.5
2020-Oct-19 03:24 010 9 gusting 13 4.5
2020-Oct-19 03:14 010 9 gusting 13 4.4
2020-Oct-19 03:04 010 7 gusting 12 4.4
2020-Oct-19 02:54 010 8 gusting 13 4.4
2020-Oct-19 02:44 010 7 gusting 12 4.5
2020-Oct-19 02:34 010 7 gusting 13 4.5
2020-Oct-19 02:24 010 7 gusting 13 4.6
2020-Oct-19 02:14 010 9 gusting 13 4.6
2020-Oct-19 02:04 010 9 gusting 13 4.5
2020-Oct-19 01:54 010 12 gusting 15 4.5
2020-Oct-19 01:44 010 13 gusting 15 4.5
2020-Oct-19 01:34 360 13 gusting 18 4.5
2020-Oct-19 01:24 010 13 gusting 17 4.6
2020-Oct-19 01:14 010 12 gusting 20 4.7
2020-Oct-19 01:04 010 13 gusting 18 4.6
2020-Oct-19 00:54 010 13 gusting 18 4.6
2020-Oct-19 00:44 360 13 gusting 17 4.6
2020-Oct-19 00:34 360 13 gusting 18 4.5
2020-Oct-19 00:24 360 13 gusting 18 4.6
2020-Oct-19 00:14 360 13 gusting 17 4.6
2020-Oct-18 23:54 360 13 gusting 19 4.6
2020-Oct-18 23:44 360 13 gusting 19 4.6
2020-Oct-18 23:34 360 13 gusting 17 4.6
2020-Oct-18 23:24 360 13 gusting 19 4.5
2020-Oct-18 23:14 360 14 gusting 19 4.4
2020-Oct-18 23:04 360 14 gusting 19 4.3
2020-Oct-18 22:54 360 14 gusting 19 4.5
2020-Oct-18 22:44 360 14 gusting 20 4.3
2020-Oct-18 22:34 360 15 gusting 20 4.3
2020-Oct-18 22:24 360 17 gusting 20 4.2
2020-Oct-18 22:14 360 15 gusting 21 4.2
2020-Oct-18 22:04 360 17 gusting 22 4.1
2020-Oct-18 21:54 360 17 gusting 22 4.1
2020-Oct-18 21:44 360 18 gusting 22 4.1
2020-Oct-18 21:34 360 19 gusting 22 4.1
2020-Oct-18 21:24 360 20 gusting 26 4.0
2020-Oct-18 21:14 360 20 gusting 24 4.0
2020-Oct-18 21:04 360 19 gusting 25 3.9
2020-Oct-18 20:54 010 17 gusting 21 3.9
2020-Oct-18 20:44 010 17 gusting 21 3.9
2020-Oct-18 20:34 010 20 gusting 26 3.8
2020-Oct-18 20:24 010 20 gusting 25 3.8
2020-Oct-18 20:14 010 20 gusting 26 3.9
2020-Oct-18 20:04 010 20 gusting 26 3.9
2020-Oct-18 19:54 010 20 gusting 27 3.8
2020-Oct-18 19:44 010 20 gusting 26 3.9
2020-Oct-18 19:34 010 20 gusting 26 3.8
2020-Oct-18 19:24 010 20 gusting 26 3.7
2020-Oct-18 19:14 010 20 gusting 27 3.7
2020-Oct-18 19:04 010 20 gusting 26 3.6
2020-Oct-18 18:54 360 20 gusting 27 3.6
2020-Oct-18 18:44 360 20 gusting 25 3.5
2020-Oct-18 18:34 010 20 gusting 27 3.7
2020-Oct-18 18:24 010 21 gusting 27 3.6
2020-Oct-18 18:14 010 22 gusting 27 3.6
2020-Oct-18 18:04 010 20 gusting 27 3.7
2020-Oct-18 17:54 010 20 gusting 26 3.6
2020-Oct-18 17:44 010 21 gusting 27 3.7
2020-Oct-18 17:37 010 21 gusting 27 3.7
2020-Oct-18 17:24 010 24 gusting 31 3.8
2020-Oct-18 17:14 010 25 gusting 31 3.8
2020-Oct-18 17:04 010 24 gusting 32 3.8
2020-Oct-18 16:54 010 27 gusting 34 3.8
2020-Oct-18 16:44 360 27 gusting 34 3.8
2020-Oct-18 16:34 010 27 gusting 33 3.8
2020-Oct-18 16:24 360 27 gusting 34 3.7
2020-Oct-18 16:14 010 28 gusting 36 3.7
2020-Oct-18 16:04 360 27 gusting 34 3.6
2020-Oct-18 15:54 360 29 gusting 35 3.6
2020-Oct-18 15:44 360 27 gusting 34 3.6
2020-Oct-18 15:34 360 28 gusting 35 3.5
2020-Oct-18 15:24 360 27 gusting 34 3.7
2020-Oct-18 15:14 010 27 gusting 34 3.7
2020-Oct-18 15:04 010 27 gusting 36 3.6
2020-Oct-18 14:54 010 27 gusting 34 3.6
2020-Oct-18 14:44 010 26 gusting 33 3.7
2020-Oct-18 14:34 010 27 gusting 35 3.6
2020-Oct-18 14:24 010 24 gusting 29 3.5
2020-Oct-18 14:14 010 22 gusting 28 3.4
2020-Oct-18 14:04 010 21 gusting 31 3.3
2020-Oct-18 13:54 010 22 gusting 29 3.3
2020-Oct-18 13:44 010 21 gusting 28 3.3
2020-Oct-18 13:34 010 21 gusting 28 3.4
2020-Oct-18 13:24 010 22 gusting 31 3.5
2020-Oct-18 13:14 010 22 gusting 32 3.6
2020-Oct-18 13:04 010 25 gusting 34 3.7
2020-Oct-18 12:54 010 27 gusting 33 3.7
2020-Oct-18 12:44 360 27 gusting 34 3.8
2020-Oct-18 12:34 360 26 gusting 33 3.8
2020-Oct-18 12:24 360 27 gusting 34 3.8
2020-Oct-18 12:14 360 27 gusting 34 3.8
2020-Oct-18 12:04 360 28 gusting 34 3.6
2020-Oct-18 11:54 010 27 gusting 34 3.8
2020-Oct-18 11:44 360 27 gusting 34 3.8
2020-Oct-18 11:34 360 27 gusting 34 3.8
2020-Oct-18 11:24 360 27 gusting 34 3.8
2020-Oct-18 11:14 360 27 gusting 34 3.8
2020-Oct-18 11:04 360 26 gusting 34 3.9